Time;durP1;ratioP1;P1;durP2;ratioP2;P2;SDS_P1;SDS_P2;PMS_P1;PMS_P2;Temp;Humidity;BMP_temperature;BMP_pressure;BME280_temperature;BME280_humidity;BME280_pressure;Samples;Min_cycle;Max_cycle;Signal;HPM_P1;HPM_P2
2021/09/25 00:01:32;;;;;;;9.60;4.82;;;;;;;14.91;79.81;101357.91;4992154;28;20046;-73
2021/09/25 00:03:59;;;;;;;11.70;4.45;;;;;;;14.89;79.80;101356.41;4991478;28;20050;-73
2021/09/25 00:06:25;;;;;;;11.18;5.05;;;;;;;14.82;79.57;101363.41;4993101;28;20038;-73
2021/09/25 00:08:52;;;;;;;14.27;5.07;;;;;;;14.67;80.05;101356.06;4993302;28;20041;-73
2021/09/25 00:11:19;;;;;;;12.75;5.15;;;;;;;14.47;81.04;101355.50;4992939;28;20046;-73
2021/09/25 00:13:47;;;;;;;14.82;5.40;;;;;;;14.48;81.12;101354.53;4976219;28;20046;-73
2021/09/25 00:16:14;;;;;;;13.45;5.70;;;;;;;14.55;80.91;101360.03;4993080;28;20043;-73
2021/09/25 00:18:41;;;;;;;11.38;5.20;;;;;;;14.49;80.96;101364.19;4993222;28;20046;-73
2021/09/25 00:21:07;;;;;;;16.55;5.43;;;;;;;14.49;80.81;101358.03;4993220;28;20046;-73
2021/09/25 00:23:34;;;;;;;13.68;5.28;;;;;;;14.45;81.03;101356.69;4991818;28;20054;-73
2021/09/25 00:26:09;;;;;;;13.20;4.65;;;;;;;14.39;81.25;101356.34;4976717;28;20435;-73
2021/09/25 00:28:35;;;;;;;11.35;5.18;;;;;;;14.38;81.44;101345.81;4992839;28;20046;-73
2021/09/25 00:31:02;;;;;;;13.15;5.15;;;;;;;14.37;81.47;101347.66;4991450;28;20038;-73
2021/09/25 00:33:29;;;;;;;12.63;5.47;;;;;;;14.38;81.49;101359.16;4960343;28;20403;-73
2021/09/25 00:35:56;;;;;;;13.20;5.28;;;;;;;14.33;81.14;101353.47;4996517;28;20042;-73
2021/09/25 00:38:23;;;;;;;13.32;5.30;;;;;;;14.33;81.00;101351.66;4996643;28;20125;-73
2021/09/25 00:40:50;;;;;;;14.98;5.35;;;;;;;14.33;81.15;101353.47;4996078;28;20133;-73
2021/09/25 00:43:17;;;;;;;11.25;4.90;;;;;;;14.28;81.31;101353.13;4996304;28;20046;-73
2021/09/25 00:45:44;;;;;;;15.13;4.95;;;;;;;14.25;81.69;101356.16;4978957;28;20050;-73
2021/09/25 00:48:11;;;;;;;15.73;5.53;;;;;;;14.21;82.04;101360.97;4996284;28;20042;-73
2021/09/25 00:50:39;;;;;;;12.75;5.05;;;;;;;14.19;81.90;101357.63;4996657;28;20077;-73
2021/09/25 00:53:05;;;;;;;13.25;5.25;;;;;;;14.19;81.74;101369.13;4978977;28;20046;-73
2021/09/25 00:55:32;;;;;;;15.73;5.38;;;;;;;14.16;82.01;101365.97;4978627;28;20062;-73
2021/09/25 00:58:02;;;;;;;12.82;5.25;;;;;;;14.15;82.06;101361.59;4978811;28;20078;-73
2021/09/25 01:00:31;;;;;;;13.15;5.55;;;;;;;14.11;82.00;101361.09;4996339;28;20039;-73
2021/09/25 01:02:58;;;;;;;12.82;5.85;;;;;;;14.12;82.07;101364.63;4978824;28;20077;-73
2021/09/25 01:05:25;;;;;;;16.23;5.57;;;;;;;14.09;82.04;101355.09;4996083;28;20484;-73
2021/09/25 01:07:52;;;;;;;13.65;5.38;;;;;;;14.09;82.14;101354.25;4995954;28;20077;-73
2021/09/25 01:10:20;;;;;;;13.38;6.20;;;;;;;14.11;82.36;101353.09;4994915;28;20038;-73
2021/09/25 01:12:47;;;;;;;12.80;6.47;;;;;;;14.14;82.59;101351.94;4976790;28;20045;-73
2021/09/25 01:15:15;;;;;;;15.32;6.30;;;;;;;14.11;82.19;101353.09;4990878;28;20049;-73
2021/09/25 01:17:42;;;;;;;15.65;6.88;;;;;;;14.14;82.29;101355.44;4995295;28;20164;-73
2021/09/25 01:20:10;;;;;;;15.70;6.43;;;;;;;14.14;82.28;101359.97;4992260;28;20104;-73
2021/09/25 01:22:37;;;;;;;17.42;6.82;;;;;;;14.17;82.35;101355.13;4995549;28;20060;-73
2021/09/25 01:25:06;;;;;;;23.77;6.45;;;;;;;14.17;82.30;101363.13;4995326;28;20043;-73
2021/09/25 01:27:35;;;;;;;15.48;6.70;;;;;;;14.18;82.22;101361.28;4995403;28;20053;-73
2021/09/25 01:30:06;;;;;;;16.40;6.57;;;;;;;14.16;82.26;101363.28;4995458;28;20039;-73
2021/09/25 01:32:33;;;;;;;16.33;7.10;;;;;;;14.19;81.96;101355.81;4995791;28;20084;-73
2021/09/25 01:35:00;;;;;;;23.00;7.18;;;;;;;14.24;82.14;101367.81;4994249;28;20125;-73
2021/09/25 01:37:27;;;;;;;12.73;7.10;;;;;;;14.25;81.98;101367.66;4995584;28;20049;-73
2021/09/25 01:39:54;;;;;;;13.63;6.97;;;;;;;14.25;81.97;101364.97;4983798;28;20061;-73
2021/09/25 01:42:21;;;;;;;17.33;7.50;;;;;;;14.24;81.89;101370.47;4990979;28;20049;-73
2021/09/25 01:44:50;;;;;;;14.45;7.18;;;;;;;14.16;82.37;101364.13;4975787;28;20042;-73
2021/09/25 01:47:17;;;;;;;13.95;7.50;;;;;;;14.16;82.31;101369.47;4976046;28;20503;-73
2021/09/25 01:49:47;;;;;;;14.18;6.68;;;;;;;14.18;82.49;101367.47;4974404;28;20034;-73
2021/09/25 01:52:14;;;;;;;14.45;6.38;;;;;;;14.17;82.55;101365.81;4974647;28;20122;-73
2021/09/25 01:54:41;;;;;;;16.05;7.65;;;;;;;14.17;82.33;101359.59;4988494;28;20053;-73
2021/09/25 01:57:08;;;;;;;14.32;7.43;;;;;;;14.18;82.11;101362.13;4975642;28;20051;-73
2021/09/25 01:59:35;;;;;;;15.10;7.13;;;;;;;14.17;82.04;101364.94;4975663;28;20045;-73
2021/09/25 02:02:03;;;;;;;15.82;6.68;;;;;;;14.17;81.99;101356.94;4975595;28;20134;-73
2021/09/25 02:04:33;;;;;;;15.18;6.65;;;;;;;14.13;81.91;101363.59;4975425;28;20067;-73
2021/09/25 02:07:00;;;;;;;13.45;6.75;;;;;;;14.10;81.94;101369.25;4975342;28;20411;-73
2021/09/25 02:09:26;;;;;;;18.73;7.28;;;;;;;14.05;82.03;101359.09;4975327;28;20112;-73
2021/09/25 02:11:54;;;;;;;13.15;6.40;;;;;;;14.04;82.04;101357.41;4975124;28;20125;-73
2021/09/25 02:14:20;;;;;;;14.00;6.70;;;;;;;14.03;81.99;101358.41;4975376;28;20047;-73
2021/09/25 02:16:47;;;;;;;15.93;7.18;;;;;;;13.92;82.35;101348.88;4975182;28;20043;-73
2021/09/25 02:19:14;;;;;;;16.13;7.63;;;;;;;13.94;82.54;101359.38;4975245;28;20046;-73
2021/09/25 02:21:41;;;;;;;16.65;7.78;;;;;;;13.93;82.71;101363.03;4975058;28;20121;-73
2021/09/25 02:24:07;;;;;;;14.80;7.70;;;;;;;13.91;82.79;101367.69;4973272;28;20046;-73
2021/09/25 02:26:34;;;;;;;15.43;8.10;;;;;;;13.85;82.96;101353.19;4974618;28;20125;-73
2021/09/25 02:29:01;;;;;;;17.15;7.88;;;;;;;13.85;83.06;101363.03;4975125;28;20081;-73
2021/09/25 02:31:28;;;;;;;18.17;8.30;;;;;;;13.79;82.73;101354.66;4957417;28;20476;-73
2021/09/25 02:33:54;;;;;;;18.92;8.18;;;;;;;13.87;82.97;101359.19;4975056;28;20492;-73
2021/09/25 02:36:21;;;;;;;15.52;8.10;;;;;;;13.97;82.68;101359.03;4957849;28;20158;-73
2021/09/25 02:38:48;;;;;;;16.27;7.85;;;;;;;13.96;82.66;101360.88;4975487;28;20038;-72
2021/09/25 02:41:15;;;;;;;14.48;8.00;;;;;;;13.99;82.65;101351.75;4993981;28;20042;-73
2021/09/25 02:43:42;;;;;;;17.10;8.10;;;;;;;14.08;82.36;101352.59;4976968;28;20518;-73
2021/09/25 02:46:08;;;;;;;19.02;8.57;;;;;;;13.99;82.65;101357.91;4994087;28;20051;-73
2021/09/25 02:48:35;;;;;;;14.80;8.13;;;;;;;13.97;82.78;101359.03;4974878;28;20042;-73
2021/09/25 02:51:02;;;;;;;15.90;7.57;;;;;;;13.97;82.95;101357.25;4994148;28;20129;-73
2021/09/25 02:53:30;;;;;;;14.05;7.40;;;;;;;13.94;83.01;101362.06;4976336;28;20500;-73
2021/09/25 02:55:57;;;;;;;17.65;8.27;;;;;;;13.97;82.94;101364.38;4976196;28;20125;-73
2021/09/25 02:58:24;;;;;;;16.98;8.50;;;;;;;14.03;82.77;101361.09;4993790;28;20051;-73
2021/09/25 03:00:52;;;;;;;18.33;8.43;;;;;;;13.99;82.97;101363.25;4994065;28;20555;-73
2021/09/25 03:03:18;;;;;;;17.52;8.50;;;;;;;14.06;82.63;101354.59;5004971;28;20408;-73
2021/09/25 03:05:45;;;;;;;19.55;8.57;;;;;;;14.07;83.08;101354.44;4993784;28;20126;-73
2021/09/25 03:08:13;;;;;;;17.13;8.25;;;;;;;14.17;82.57;101359.59;4993542;28;20388;-73
2021/09/25 03:10:40;;;;;;;20.17;8.30;;;;;;;14.21;82.20;101361.81;4993522;28;20045;-73
2021/09/25 03:13:07;;;;;;;19.75;9.13;;;;;;;14.20;82.66;101354.78;4986412;28;20496;-73
2021/09/25 03:15:33;;;;;;;16.02;8.20;;;;;;;14.28;82.43;101358.47;4993497;28;20411;-73
2021/09/25 03:18:00;;;;;;;17.20;8.32;;;;;;;14.32;82.27;101354.50;4976289;28;20050;-73
2021/09/25 03:20:27;;;;;;;17.98;8.40;;;;;;;14.31;82.58;101352.81;4972473;28;20114;-73
2021/09/25 03:22:54;;;;;;;18.17;7.82;;;;;;;14.30;82.42;101352.00;4973940;28;20416;-73
2021/09/25 03:25:21;;;;;;;16.58;8.10;;;;;;;14.33;82.55;101362.31;4972724;28;20043;-73
2021/09/25 03:27:53;;;;;;;16.63;8.00;;;;;;;14.39;82.20;101356.34;4973109;28;20057;-73
2021/09/25 03:30:22;;;;;;;22.83;8.55;;;;;;;14.44;81.92;101357.69;4974130;28;20078;-73
2021/09/25 03:32:49;;;;;;;16.08;7.78;;;;;;;14.44;81.74;101353.16;4973250;28;20050;-73
2021/09/25 03:35:16;;;;;;;20.30;8.20;;;;;;;14.49;81.78;101353.50;4974117;28;20050;-73
2021/09/25 03:37:43;;;;;;;18.67;8.43;;;;;;;14.55;81.37;101347.53;4974107;28;20070;-73
2021/09/25 03:40:10;;;;;;;18.40;8.20;;;;;;;14.57;81.52;101352.69;4973289;28;20047;-73
2021/09/25 03:42:37;;;;;;;17.67;8.15;;;;;;;14.50;82.09;101352.53;4972670;28;20043;-73
2021/09/25 03:45:06;;;;;;;18.10;8.10;;;;;;;14.52;82.10;101347.84;4972458;28;20126;-73
2021/09/25 03:47:32;;;;;;;20.35;8.75;;;;;;;14.57;81.79;101347.34;4956786;28;20477;-73
2021/09/25 03:49:59;;;;;;;15.23;7.72;;;;;;;14.60;81.80;101349.72;4973966;28;20043;-74
2021/09/25 03:52:26;;;;;;;20.25;8.95;;;;;;;14.62;81.87;101341.56;4973915;28;20053;-73
2021/09/25 03:54:53;;;;;;;18.02;8.50;;;;;;;14.59;81.74;101345.41;4973839;28;20043;-73
2021/09/25 03:57:20;;;;;;;18.08;9.57;;;;;;;14.67;81.66;101344.56;4956471;28;20525;-73
2021/09/25 03:59:46;;;;;;;17.23;9.20;;;;;;;14.65;81.75;101333.22;4974271;28;20142;-73
2021/09/25 04:02:13;;;;;;;20.17;9.40;;;;;;;14.68;81.58;101343.53;4956939;28;20066;-74
2021/09/25 04:04:40;;;;;;;23.52;8.93;;;;;;;14.68;81.59;101335.53;4973899;28;20412;-73
2021/09/25 04:07:07;;;;;;;21.05;9.68;;;;;;;14.69;81.28;101339.88;4973660;28;20137;-73
2021/09/25 04:09:33;;;;;;;17.33;9.15;;;;;;;14.65;81.64;101336.72;4976179;28;20038;-73
2021/09/25 04:12:00;;;;;;;22.52;9.07;;;;;;;14.72;81.59;101335.06;4944220;28;20385;-73
2021/09/25 04:14:27;;;;;;;20.38;8.80;;;;;;;14.73;81.40;101335.88;4977628;28;20047;-73
2021/09/25 04:16:55;;;;;;;17.00;8.60;;;;;;;14.77;81.01;101334.53;4960339;28;20411;-73
2021/09/25 04:19:21;;;;;;;23.40;9.50;;;;;;;14.76;81.15;101332.88;4977579;28;20085;-73
2021/09/25 04:21:49;;;;;;;16.75;8.57;;;;;;;14.78;80.77;101331.69;4977066;28;20125;-73
2021/09/25 04:24:16;;;;;;;20.73;8.68;;;;;;;14.81;80.94;101338.56;4960222;28;20069;-73
2021/09/25 04:26:43;;;;;;;18.85;8.60;;;;;;;14.81;80.55;101338.56;4976808;28;20403;-73
2021/09/25 04:29:10;;;;;;;20.52;8.82;;;;;;;14.68;80.92;101335.53;4977392;28;20042;-73
2021/09/25 04:31:37;;;;;;;19.42;8.52;;;;;;;14.75;80.66;101340.06;4960098;28;20039;-73
2021/09/25 04:34:04;;;;;;;17.95;9.07;;;;;;;14.76;80.92;101338.22;4977191;28;20066;-73
2021/09/25 04:36:31;;;;;;;19.75;8.73;;;;;;;14.82;80.93;101336.72;4959984;28;20047;-73
2021/09/25 04:38:59;;;;;;;21.48;9.65;;;;;;;14.86;80.56;101335.38;4962140;28;20121;-73
2021/09/25 04:41:27;;;;;;;19.63;9.40;;;;;;;14.85;80.61;101331.88;4996060;28;20047;-73
2021/09/25 04:43:54;;;;;;;29.08;9.55;;;;;;;14.89;80.83;101327.84;4996291;28;20565;-73
2021/09/25 04:46:20;;;;;;;19.73;10.02;;;;;;;14.89;80.78;101327.03;4994345;28;20046;-73
2021/09/25 04:48:48;;;;;;;19.77;10.30;;;;;;;14.98;79.87;101323.34;4995918;28;20073;-73
2021/09/25 04:51:16;;;;;;;22.80;10.18;;;;;;;15.00;80.16;101336.53;4979208;28;20057;-73
2021/09/25 04:53:43;;;;;;;19.83;9.63;;;;;;;14.91;80.65;101327.69;4996242;28;20132;-73
2021/09/25 04:56:11;;;;;;;22.15;9.65;;;;;;;14.88;80.55;101322.69;4995894;28;20517;-73
2021/09/25 04:58:39;;;;;;;20.92;9.18;;;;;;;14.96;80.11;101322.69;4996183;28;20046;-73
2021/09/25 05:01:05;;;;;;;19.77;8.77;;;;;;;14.89;80.41;101333.19;4995144;28;20081;-73
2021/09/25 05:03:33;;;;;;;20.42;8.85;;;;;;;14.86;80.44;101343.38;4994635;28;20530;-73
2021/09/25 05:06:01;;;;;;;17.33;9.10;;;;;;;14.82;80.60;101334.03;4996052;28;20125;-73
2021/09/25 05:08:28;;;;;;;25.63;9.00;;;;;;;14.73;80.80;101343.88;4979080;28;20049;-73
2021/09/25 05:10:55;;;;;;;18.15;8.82;;;;;;;14.73;80.86;101339.38;4995457;28;20125;-73
2021/09/25 05:13:22;;;;;;;19.13;9.20;;;;;;;14.77;80.80;101347.88;4993259;28;20038;-73
2021/09/25 05:15:48;;;;;;;17.42;8.40;;;;;;;14.81;80.76;101348.38;4993586;28;20402;-73
2021/09/25 05:18:15;;;;;;;15.05;8.52;;;;;;;14.77;80.79;101350.56;4995175;28;20066;-72
2021/09/25 05:20:42;;;;;;;17.38;8.60;;;;;;;14.77;80.70;101354.09;4978160;28;20046;-73
2021/09/25 05:23:10;;;;;;;21.05;9.40;;;;;;;14.72;80.92;101340.38;4995610;28;20159;-73
2021/09/25 05:25:36;;;;;;;17.40;8.38;;;;;;;14.80;80.56;101350.22;4978054;28;20047;-73
2021/09/25 05:28:03;;;;;;;19.67;8.38;;;;;;;14.78;80.63;101352.22;4978477;28;20042;-73
2021/09/25 05:30:30;;;;;;;16.42;8.80;;;;;;;14.75;80.27;101342.75;4978323;28;20483;-73
2021/09/25 05:32:57;;;;;;;16.52;8.18;;;;;;;14.83;79.69;101349.91;4978044;28;20484;-73
2021/09/25 05:35:24;;;;;;;17.13;8.40;;;;;;;14.75;80.52;101356.09;4978294;28;20052;-73
2021/09/25 05:37:52;;;;;;;17.60;8.15;;;;;;;14.84;80.06;101356.06;4995557;28;20038;-73
2021/09/25 05:40:19;;;;;;;18.13;8.40;;;;;;;14.75;80.27;101358.75;4993379;28;20042;-73
2021/09/25 05:42:46;;;;;;;18.15;8.52;;;;;;;14.76;80.41;101360.41;4978194;28;20045;-73
2021/09/25 05:45:15;;;;;;;15.95;8.63;;;;;;;14.79;80.40;101356.59;4995098;28;20514;-73
2021/09/25 05:47:42;;;;;;;17.33;8.18;;;;;;;14.80;80.46;101357.41;4995468;28;20054;-73
2021/09/25 05:50:11;;;;;;;15.68;7.95;;;;;;;14.82;80.16;101352.75;4995199;28;20042;-73
2021/09/25 05:52:39;;;;;;;18.73;8.23;;;;;;;14.80;80.14;101354.75;4995047;28;20046;-73
2021/09/25 05:55:08;;;;;;;16.23;8.18;;;;;;;14.80;80.30;101354.75;4993835;28;20097;-73
2021/09/25 05:57:35;;;;;;;18.02;8.45;;;;;;;14.86;80.12;101354.94;4993624;28;20128;-73
2021/09/25 06:00:05;;;;;;;15.82;7.97;;;;;;;14.81;80.12;101362.59;4995020;28;20491;-73
2021/09/25 06:02:48;;;;;;;14.38;7.78;;;;;;;14.82;80.12;101358.91;5110931;27;20368;-73
2021/09/25 06:05:14;;;;;;;16.65;7.50;;;;;;;14.84;80.16;101369.44;5107614;28;20035;-72
2021/09/25 06:07:41;;;;;;;17.13;7.68;;;;;;;14.86;80.03;101368.28;5109548;28;20051;-72
2021/09/25 06:10:08;;;;;;;14.50;7.55;;;;;;;14.91;79.88;101365.09;5110773;28;20046;-72
2021/09/25 06:12:35;;;;;;;14.18;7.13;;;;;;;14.90;79.60;101360.75;5110461;28;20039;-72
2021/09/25 06:15:03;;;;;;;15.30;7.43;;;;;;;14.89;79.51;101365.25;5110403;28;20100;-72
2021/09/25 06:17:29;;;;;;;13.05;6.85;;;;;;;14.90;79.48;101366.94;5109316;28;20040;-72
2021/09/25 06:19:56;;;;;;;16.33;7.35;;;;;;;14.93;79.46;101363.91;5110687;28;20047;-72
2021/09/25 06:22:25;;;;;;;13.77;7.05;;;;;;;14.98;79.39;101358.06;5108822;28;20094;-72
2021/09/25 06:24:53;;;;;;;14.23;7.53;;;;;;;15.02;79.05;101362.06;5092533;28;20046;-72
2021/09/25 06:27:20;;;;;;;14.60;7.28;;;;;;;14.93;79.13;101363.09;5108774;28;20050;-72
2021/09/25 06:29:47;;;;;;;16.63;7.45;;;;;;;14.94;79.04;101373.59;5110411;28;20036;-72
2021/09/25 06:32:14;;;;;;;17.15;7.07;;;;;;;14.96;79.13;101371.59;5107196;28;20042;-72
2021/09/25 06:34:41;;;;;;;16.88;7.22;;;;;;;14.96;78.90;101378.78;5092094;28;20581;-72
2021/09/25 06:37:08;;;;;;;15.77;7.60;;;;;;;15.05;78.61;101371.59;5110356;28;20040;-72
2021/09/25 06:39:34;;;;;;;14.70;7.53;;;;;;;15.05;78.64;101374.28;5108847;28;20044;-72
2021/09/25 06:42:01;;;;;;;14.93;7.03;;;;;;;15.04;78.48;101372.59;5108596;28;20464;-72
2021/09/25 06:44:29;;;;;;;14.93;7.32;;;;;;;15.08;78.61;101374.78;5110150;28;20036;-72
2021/09/25 06:46:55;;;;;;;19.45;7.13;;;;;;;15.15;78.27;101365.09;5091881;28;20047;-72
2021/09/25 06:49:24;;;;;;;15.07;7.40;;;;;;;15.18;77.84;101365.75;5109947;28;20044;-72
2021/09/25 06:51:51;;;;;;;15.55;7.50;;;;;;;15.11;78.25;101373.59;5108711;28;20044;-72
2021/09/25 06:54:17;;;;;;;15.05;7.45;;;;;;;15.00;78.43;101366.75;5091612;28;20134;-73
2021/09/25 06:56:44;;;;;;;15.77;7.80;;;;;;;15.09;78.28;101373.75;5108388;28;20050;-72
2021/09/25 06:59:12;;;;;;;14.07;7.63;;;;;;;15.13;78.25;101369.78;5091415;28;20063;-73
2021/09/25 07:01:39;;;;;;;16.08;8.13;;;;;;;15.18;78.59;101376.44;5109515;28;20089;-72
2021/09/25 07:04:06;;;;;;;15.05;7.65;;;;;;;15.18;78.39;101379.09;5106504;28;20043;-73
2021/09/25 07:06:34;;;;;;;15.45;7.60;;;;;;;15.25;78.41;101374.75;5109567;28;20074;-73
2021/09/25 07:09:01;;;;;;;16.67;8.02;;;;;;;15.32;78.16;101378.44;5109537;28;20074;-73
2021/09/25 07:11:27;;;;;;;16.90;8.10;;;;;;;15.35;77.75;101375.38;5109328;28;20123;-72
2021/09/25 07:13:54;;;;;;;18.77;7.75;;;;;;;15.40;77.73;101380.25;5065176;28;20538;-73
2021/09/25 07:16:21;;;;;;;17.65;7.85;;;;;;;15.39;77.63;101387.44;5114746;28;20047;-73
2021/09/25 07:18:48;;;;;;;15.43;7.68;;;;;;;15.38;77.62;101390.28;5097455;28;20486;-73
2021/09/25 07:21:15;;;;;;;14.90;7.82;;;;;;;15.41;78.02;101382.75;5115043;28;20036;-72
2021/09/25 07:23:41;;;;;;;16.05;8.20;;;;;;;15.51;77.60;101387.91;5116118;28;20376;-73
2021/09/25 07:26:08;;;;;;;16.77;8.75;;;;;;;15.59;77.25;101379.88;5115704;28;20073;-73
2021/09/25 07:28:35;;;;;;;16.13;8.43;;;;;;;15.60;77.02;101384.19;5116158;28;20047;-73
2021/09/25 07:31:03;;;;;;;17.45;9.77;;;;;;;15.54;77.02;101385.72;5098016;28;20078;-73
2021/09/25 07:33:30;;;;;;;15.77;8.77;;;;;;;15.58;77.25;101383.53;5106866;28;20142;-73
2021/09/25 07:35:56;;;;;;;17.70;8.95;;;;;;;15.62;77.29;101386.69;5114724;28;20043;-73
2021/09/25 07:38:23;;;;;;;16.52;8.90;;;;;;;15.60;77.38;101391.38;5115668;28;20376;-73
2021/09/25 07:40:52;;;;;;;20.00;9.57;;;;;;;15.62;77.56;101392.88;5097257;28;20052;-73
2021/09/25 07:43:19;;;;;;;16.20;8.80;;;;;;;15.59;77.34;101406.59;5095564;28;20062;-73
2021/09/25 07:45:46;;;;;;;17.95;9.40;;;;;;;15.57;77.46;101407.75;5093832;28;20389;-73
2021/09/25 07:48:13;;;;;;;18.38;9.65;;;;;;;15.65;77.29;101405.91;5095473;28;20040;-73
2021/09/25 07:50:40;;;;;;;21.13;9.02;;;;;;;15.71;77.17;101410.56;5094079;28;20040;-73
2021/09/25 07:53:07;;;;;;;21.05;9.38;;;;;;;15.71;77.25;101417.75;5093789;28;20067;-73
2021/09/25 07:55:34;;;;;;;18.75;9.07;;;;;;;15.77;77.26;101417.13;5093926;28;20040;-73
2021/09/25 07:58:01;;;;;;;17.83;9.30;;;;;;;15.81;77.01;101421.13;5094746;28;20076;-73
2021/09/25 08:00:28;;;;;;;18.42;9.35;;;;;;;15.79;76.96;101420.47;5094892;28;20055;-73
2021/09/25 08:02:55;;;;;;;17.15;9.52;;;;;;;15.86;76.65;101423.25;5094965;28;20044;-73
2021/09/25 08:05:22;;;;;;;15.07;9.23;;;;;;;15.87;76.61;101422.28;5092966;28;20051;-73
2021/09/25 08:07:49;;;;;;;19.08;9.93;;;;;;;15.92;76.24;101422.59;5093594;28;20534;-74
2021/09/25 08:10:16;;;;;;;15.98;9.25;;;;;;;15.90;76.47;101422.75;5094782;28;20036;-73
2021/09/25 08:12:44;;;;;;;20.80;10.38;;;;;;;15.96;76.61;101423.91;5080791;28;20040;-73
2021/09/25 08:15:13;;;;;;;16.38;9.38;;;;;;;16.03;76.22;101426.75;5094645;28;20498;-73
2021/09/25 08:17:41;;;;;;;21.48;9.48;;;;;;;16.01;76.40;101426.91;5093421;28;20044;-73
2021/09/25 08:20:10;;;;;;;22.08;9.77;;;;;;;16.11;75.88;101427.50;5094621;28;20073;-73
2021/09/25 08:22:37;;;;;;;20.17;10.10;;;;;;;16.12;75.71;101428.38;5094438;28;20044;-73
2021/09/25 08:25:04;;;;;;;17.30;9.75;;;;;;;16.14;76.31;101422.84;5092367;28;20040;-73
2021/09/25 08:27:31;;;;;;;18.60;10.75;;;;;;;16.29;75.33;101426.44;5094218;28;20055;-73
2021/09/25 08:29:58;;;;;;;16.48;9.80;;;;;;;16.18;75.72;101416.94;5093214;28;20047;-73
2021/09/25 08:32:25;;;;;;;18.92;10.15;;;;;;;16.25;75.83;101428.63;5091465;28;20070;-73
2021/09/25 08:34:51;;;;;;;19.73;10.48;;;;;;;16.30;75.86;101428.13;5094417;28;20040;-73
2021/09/25 08:37:18;;;;;;;19.23;10.43;;;;;;;16.45;74.84;101434.38;5094438;28;20043;-73
2021/09/25 08:39:45;;;;;;;22.00;10.27;;;;;;;16.33;75.25;101432.28;5094292;28;20044;-73
2021/09/25 08:42:14;;;;;;;18.98;10.25;;;;;;;16.32;75.79;101428.78;5075977;28;20039;-73
2021/09/25 08:44:43;;;;;;;19.70;10.65;;;;;;;16.41;75.56;101437.56;5093839;28;20415;-73
2021/09/25 08:47:10;;;;;;;21.38;9.50;;;;;;;16.57;75.04;101439.34;5094102;28;20050;-73
2021/09/25 08:49:36;;;;;;;17.45;9.98;;;;;;;16.60;75.12;101445.19;5094120;28;20040;-73
2021/09/25 08:52:03;;;;;;;26.38;10.48;;;;;;;16.55;74.49;101441.38;5092753;28;20032;-73
2021/09/25 08:54:30;;;;;;;19.00;11.13;;;;;;;16.63;74.92;101433.28;5092751;28;20400;-73
2021/09/25 08:56:57;;;;;;;21.30;10.55;;;;;;;16.70;74.26;101443.13;5092341;28;20040;-73
2021/09/25 08:59:23;;;;;;;19.60;10.00;;;;;;;16.73;74.00;101441.91;5076065;28;20048;-73
2021/09/25 09:01:51;;;;;;;22.55;10.68;;;;;;;16.86;73.03;101446.72;5093920;28;20385;-73
2021/09/25 09:04:20;;;;;;;22.05;10.10;;;;;;;16.93;73.41;101446.84;5090431;28;20048;-73
2021/09/25 09:06:49;;;;;;;21.17;9.27;;;;;;;16.97;73.43;101446.31;5092540;28;20097;-73
2021/09/25 09:09:16;;;;;;;17.65;9.20;;;;;;;17.05;73.30;101454.28;5092698;28;20032;-73
2021/09/25 09:11:47;;;;;;;17.65;9.52;;;;;;;17.15;72.89;101453.19;5092327;28;20396;-73
2021/09/25 09:14:16;;;;;;;25.63;9.90;;;;;;;17.31;71.75;101457.59;5093268;28;20047;-73
2021/09/25 09:16:55;;;;;;;16.13;9.27;;;;;;;17.32;71.64;101453.88;5112494;28;20040;-73
2021/09/25 09:19:22;;;;;;;17.88;9.35;;;;;;;17.31;72.54;101453.06;5113968;28;20040;-73
2021/09/25 09:21:49;;;;;;;18.33;9.50;;;;;;;17.42;72.59;101451.78;5113836;28;20035;-73
2021/09/25 09:24:17;;;;;;;17.33;9.27;;;;;;;17.44;71.82;101463.16;5113647;28;20140;-73
2021/09/25 09:26:45;;;;;;;21.42;8.57;;;;;;;17.48;71.55;101458.28;5112405;28;20487;-73
2021/09/25 09:29:14;;;;;;;15.80;8.60;;;;;;;17.55;71.33;101452.00;5112541;28;20100;-73
2021/09/25 09:31:40;;;;;;;16.88;8.90;;;;;;;17.62;71.82;101457.47;5111895;28;20400;-73
2021/09/25 09:34:08;;;;;;;17.48;9.85;;;;;;;17.79;69.80;101458.13;5104326;28;20040;-73
2021/09/25 09:36:37;;;;;;;18.45;8.77;;;;;;;17.77;69.57;101441.38;5091886;28;20074;-73
2021/09/25 09:39:21;;;;;;;16.42;8.23;;;;;;;17.69;70.70;101445.00;5093224;28;20048;-73
2021/09/25 09:41:52;;;;;;;19.15;8.75;;;;;;;17.59;71.77;101436.38;5092880;28;20071;-73
2021/09/25 09:44:24;;;;;;;16.20;8.30;;;;;;;17.65;71.47;101446.38;5092193;28;20561;-73
2021/09/25 09:46:58;;;;;;;18.90;8.00;;;;;;;17.74;71.32;101458.69;5093160;28;20044;-73
2021/09/25 09:49:29;;;;;;;15.25;8.10;;;;;;;18.02;68.54;101447.34;5091887;28;20048;-74
2021/09/25 09:52:02;;;;;;;16.60;7.88;;;;;;;18.13;68.59;101454.09;5091858;28;20118;-74
2021/09/25 09:54:31;;;;;;;18.08;8.20;;;;;;;18.02;68.84;101452.69;5091723;28;20050;-73
2021/09/25 09:57:04;;;;;;;16.13;7.97;;;;;;;17.89;69.69;101447.16;5092649;28;20050;-72
2021/09/25 09:59:31;;;;;;;12.40;7.32;;;;;;;17.67;70.44;101443.53;5093177;28;20044;-73
2021/09/25 10:01:58;;;;;;;15.93;8.32;;;;;;;17.58;71.35;101453.50;5091507;28;20040;-73
2021/09/25 10:04:25;;;;;;;19.23;8.32;;;;;;;17.89;69.95;101450.66;5091173;28;20040;-73
2021/09/25 10:06:52;;;;;;;17.45;7.35;;;;;;;17.94;69.90;101452.81;5085892;28;20051;-73
2021/09/25 10:09:23;;;;;;;16.10;7.68;;;;;;;17.98;70.59;101441.50;5081021;28;20444;-73
2021/09/25 10:11:53;;;;;;;15.75;7.60;;;;;;;18.13;69.23;101437.97;5091577;28;20123;-73
2021/09/25 10:14:23;;;;;;;15.10;7.60;;;;;;;18.07;69.10;101436.06;5091603;28;20040;-74
2021/09/25 10:16:51;;;;;;;16.65;7.47;;;;;;;18.12;69.74;101441.66;5092907;28;20067;-73
2021/09/25 10:19:22;;;;;;;14.80;7.38;;;;;;;18.25;68.78;101435.66;5081274;28;20414;-73
2021/09/25 10:21:54;;;;;;;15.57;7.93;;;;;;;18.15;69.09;101425.19;5072569;28;20051;-74
2021/09/25 10:24:26;;;;;;;15.27;7.03;;;;;;;18.15;69.76;101423.34;5074702;28;20048;-74
2021/09/25 10:26:54;;;;;;;15.30;7.40;;;;;;;18.15;69.87;101419.81;5092386;28;20127;-74
2021/09/25 10:29:24;;;;;;;16.67;7.80;;;;;;;18.12;69.18;101426.41;5091301;28;20200;-74
2021/09/25 10:35:11;;;;;;;16.58;8.30;;;;;;;18.52;68.61;101416.13;5127757;27;20402;-73
2021/09/25 10:38:02;;;;;;;16.08;8.05;;;;;;;18.50;68.74;101410.13;5131207;27;20039;-73
2021/09/25 10:40:49;;;;;;;19.27;8.18;;;;;;;18.57;68.48;101410.19;5112051;28;20031;-73
2021/09/25 10:43:22;;;;;;;20.13;8.38;;;;;;;18.67;68.28;101413.41;5109356;28;20043;-73
2021/09/25 10:45:53;;;;;;;20.80;8.25;;;;;;;18.83;65.72;101412.34;5127833;28;20503;-74
2021/09/25 10:51:05;;;;;;;21.65;8.82;;;;;;;18.79;66.42;101416.38;5059505;28;20712;-73
2021/09/25 10:53:37;;;;;;;21.60;7.93;;;;;;;18.92;66.15;101413.06;5057512;28;20073;-73
2021/09/25 10:56:06;;;;;;;19.20;7.72;;;;;;;19.13;65.04;101410.31;5048701;28;20407;-73
2021/09/25 10:58:36;;;;;;;17.05;7.80;;;;;;;18.99;65.80;101414.78;5048397;28;20049;-73
2021/09/25 11:01:12;;;;;;;16.60;7.18;;;;;;;19.04;65.97;101414.19;5050212;28;20076;-73
2021/09/25 11:06:43;;;;;;;17.65;7.60;;;;;;;18.99;65.68;101408.53;5121652;27;20386;-74
2021/09/25 11:09:32;;;;;;;16.17;7.40;;;;;;;19.01;65.70;101405.66;5106192;28;20036;-70
2021/09/25 11:12:08;;;;;;;16.02;6.80;;;;;;;19.12;66.68;101406.00;5090780;28;20033;-71
2021/09/25 11:14:45;;;;;;;20.45;8.25;;;;;;;19.23;66.77;101410.00;5101485;28;20040;-71
2021/09/25 11:22:33;;;;;;;24.08;12.23;;;;;;;18.86;66.48;101395.00;5088006;27;20405;-72
2021/09/25 11:25:14;;;;;;;26.95;8.98;;;;;;;19.07;66.10;101388.78;5057918;28;20044;-73
2021/09/25 11:27:44;;;;;;;17.67;10.40;;;;;;;19.23;66.60;101390.31;5074266;28;20123;-72
2021/09/25 11:30:24;;;;;;;21.35;9.48;;;;;;;19.34;66.33;101393.31;5070497;28;20068;-72
2021/09/25 11:32:53;;;;;;;22.85;9.20;;;;;;;19.44;66.06;101392.97;5068420;28;20054;-72
2021/09/25 11:35:32;;;;;;;16.65;8.85;;;;;;;19.59;65.22;101386.63;5069678;28;20068;-73